sensor_id;sensor_type;location;lat;lon;timestamp;temperature;humidity
1359;DHT22;673;48.098;14.422;2024-02-04T00:02:04;6.50;99.90
1359;DHT22;673;48.098;14.422;2024-02-04T00:04:32;6.50;99.90
1359;DHT22;673;48.098;14.422;2024-02-04T00:07:00;6.50;99.90
1359;DHT22;673;48.098;14.422;2024-02-04T00:09:27;6.50;99.90
1359;DHT22;673;48.098;14.422;2024-02-04T00:11:54;6.50;99.90
1359;DHT22;673;48.098;14.422;2024-02-04T00:14:21;6.50;99.90
1359;DHT22;673;48.098;14.422;2024-02-04T00:16:50;6.50;99.90
1359;DHT22;673;48.098;14.422;2024-02-04T00:19:17;6.60;99.90
1359;DHT22;673;48.098;14.422;2024-02-04T00:21:43;6.60;99.90
1359;DHT22;673;48.098;14.422;2024-02-04T00:24:10;6.70;99.90
1359;DHT22;673;48.098;14.422;2024-02-04T00:26:37;6.70;99.90
1359;DHT22;673;48.098;14.422;2024-02-04T00:29:03;6.70;99.90
1359;DHT22;673;48.098;14.422;2024-02-04T00:31:30;6.70;99.90
1359;DHT22;673;48.098;14.422;2024-02-04T00:33:58;6.70;99.90
1359;DHT22;673;48.098;14.422;2024-02-04T00:36:26;6.70;99.90
1359;DHT22;673;48.098;14.422;2024-02-04T00:38:53;6.60;99.90
1359;DHT22;673;48.098;14.422;2024-02-04T00:41:20;6.60;99.90
1359;DHT22;673;48.098;14.422;2024-02-04T00:43:47;6.60;99.90
1359;DHT22;673;48.098;14.422;2024-02-04T00:46:14;6.60;99.90
1359;DHT22;673;48.098;14.422;2024-02-04T00:48:41;6.50;99.90
1359;DHT22;673;48.098;14.422;2024-02-04T00:51:09;6.50;99.90
1359;DHT22;673;48.098;14.422;2024-02-04T00:53:36;6.50;99.90
1359;DHT22;673;48.098;14.422;2024-02-04T00:56:04;6.60;99.90
1359;DHT22;673;48.098;14.422;2024-02-04T00:58:31;6.60;99.90
1359;DHT22;673;48.098;14.422;2024-02-04T01:00:58;6.50;99.90
1359;DHT22;673;48.098;14.422;2024-02-04T01:03:25;6.50;99.90
1359;DHT22;673;48.098;14.422;2024-02-04T01:05:52;6.50;99.90
1359;DHT22;673;48.098;14.422;2024-02-04T01:08:21;6.50;99.90
1359;DHT22;673;48.098;14.422;2024-02-04T01:10:48;6.50;99.90
1359;DHT22;673;48.098;14.422;2024-02-04T01:13:16;6.40;99.90
1359;DHT22;673;48.098;14.422;2024-02-04T01:15:43;6.50;99.90
1359;DHT22;673;48.098;14.422;2024-02-04T01:18:10;6.50;99.90
1359;DHT22;673;48.098;14.422;2024-02-04T01:20:37;6.50;99.90
1359;DHT22;673;48.098;14.422;2024-02-04T01:23:04;6.50;99.90
1359;DHT22;673;48.098;14.422;2024-02-04T01:25:32;6.50;99.90
1359;DHT22;673;48.098;14.422;2024-02-04T01:27:59;6.50;99.90
1359;DHT22;673;48.098;14.422;2024-02-04T01:30:26;6.50;99.90
1359;DHT22;673;48.098;14.422;2024-02-04T01:32:56;6.50;99.90
1359;DHT22;673;48.098;14.422;2024-02-04T01:35:23;6.50;99.90
1359;DHT22;673;48.098;14.422;2024-02-04T01:37:49;6.50;99.90
1359;DHT22;673;48.098;14.422;2024-02-04T01:40:16;6.50;99.90
1359;DHT22;673;48.098;14.422;2024-02-04T01:42:45;6.40;99.90
1359;DHT22;673;48.098;14.422;2024-02-04T01:45:12;6.40;99.90
1359;DHT22;673;48.098;14.422;2024-02-04T01:47:39;6.40;99.90
1359;DHT22;673;48.098;14.422;2024-02-04T01:50:06;6.40;99.90
1359;DHT22;673;48.098;14.422;2024-02-04T01:52:36;6.40;99.90
1359;DHT22;673;48.098;14.422;2024-02-04T01:55:05;6.40;99.90
1359;DHT22;673;48.098;14.422;2024-02-04T01:57:33;6.40;99.90
1359;DHT22;673;48.098;14.422;2024-02-04T02:00:03;6.40;99.90
1359;DHT22;673;48.098;14.422;2024-02-04T02:02:31;6.40;99.90
1359;DHT22;673;48.098;14.422;2024-02-04T02:04:59;6.40;99.90
1359;DHT22;673;48.098;14.422;2024-02-04T02:07:26;6.40;99.90
1359;DHT22;673;48.098;14.422;2024-02-04T02:09:53;6.40;99.90
1359;DHT22;673;48.098;14.422;2024-02-04T02:12:24;6.40;99.90
1359;DHT22;673;48.098;14.422;2024-02-04T02:14:56;6.40;99.90
1359;DHT22;673;48.098;14.422;2024-02-04T02:17:33;6.40;99.90
1359;DHT22;673;48.098;14.422;2024-02-04T02:20:08;6.40;99.90
1359;DHT22;673;48.098;14.422;2024-02-04T02:22:40;6.40;99.90
1359;DHT22;673;48.098;14.422;2024-02-04T02:25:14;6.40;99.90
1359;DHT22;673;48.098;14.422;2024-02-04T02:27:48;6.40;99.90
1359;DHT22;673;48.098;14.422;2024-02-04T02:30:15;6.40;99.90
1359;DHT22;673;48.098;14.422;2024-02-04T02:32:43;6.40;99.90
1359;DHT22;673;48.098;14.422;2024-02-04T02:35:10;6.40;99.90
1359;DHT22;673;48.098;14.422;2024-02-04T02:37:43;6.40;99.90
1359;DHT22;673;48.098;14.422;2024-02-04T02:40:19;6.40;99.90
1359;DHT22;673;48.098;14.422;2024-02-04T02:42:47;6.40;99.90
1359;DHT22;673;48.098;14.422;2024-02-04T02:45:14;6.40;99.90
1359;DHT22;673;48.098;14.422;2024-02-04T02:47:43;6.40;99.90
1359;DHT22;673;48.098;14.422;2024-02-04T02:50:11;6.40;99.90
1359;DHT22;673;48.098;14.422;2024-02-04T02:52:39;6.40;99.90
1359;DHT22;673;48.098;14.422;2024-02-04T02:55:06;6.40;99.90
1359;DHT22;673;48.098;14.422;2024-02-04T02:57:34;6.40;99.90
1359;DHT22;673;48.098;14.422;2024-02-04T03:00:02;6.50;99.90
1359;DHT22;673;48.098;14.422;2024-02-04T03:02:30;6.40;99.90
1359;DHT22;673;48.098;14.422;2024-02-04T03:04:57;6.40;99.90
1359;DHT22;673;48.098;14.422;2024-02-04T03:07:24;6.40;99.90
1359;DHT22;673;48.098;14.422;2024-02-04T03:09:53;6.40;99.90
1359;DHT22;673;48.098;14.422;2024-02-04T03:12:22;6.40;99.90
1359;DHT22;673;48.098;14.422;2024-02-04T03:14:50;6.40;99.90
1359;DHT22;673;48.098;14.422;2024-02-04T03:17:17;6.40;99.90
1359;DHT22;673;48.098;14.422;2024-02-04T03:19:46;6.40;99.90
1359;DHT22;673;48.098;14.422;2024-02-04T03:22:14;6.50;99.90
1359;DHT22;673;48.098;14.422;2024-02-04T03:24:41;6.50;99.90
1359;DHT22;673;48.098;14.422;2024-02-04T03:27:08;6.40;99.90
1359;DHT22;673;48.098;14.422;2024-02-04T03:29:35;6.40;99.90
1359;DHT22;673;48.098;14.422;2024-02-04T03:32:04;6.50;99.90
1359;DHT22;673;48.098;14.422;2024-02-04T03:34:31;6.40;99.90
1359;DHT22;673;48.098;14.422;2024-02-04T03:36:59;6.40;99.90
1359;DHT22;673;48.098;14.422;2024-02-04T03:39:26;6.50;99.90
1359;DHT22;673;48.098;14.422;2024-02-04T03:41:53;6.50;99.90
1359;DHT22;673;48.098;14.422;2024-02-04T03:44:20;6.50;99.90
1359;DHT22;673;48.098;14.422;2024-02-04T03:46:48;6.50;99.90
1359;DHT22;673;48.098;14.422;2024-02-04T03:49:17;6.50;99.90
1359;DHT22;673;48.098;14.422;2024-02-04T03:51:44;6.50;99.90
1359;DHT22;673;48.098;14.422;2024-02-04T03:54:11;6.50;99.90
1359;DHT22;673;48.098;14.422;2024-02-04T03:56:38;6.50;99.90
1359;DHT22;673;48.098;14.422;2024-02-04T03:59:07;6.40;99.90
1359;DHT22;673;48.098;14.422;2024-02-04T04:01:36;6.40;99.90
1359;DHT22;673;48.098;14.422;2024-02-04T04:04:03;6.40;99.90
1359;DHT22;673;48.098;14.422;2024-02-04T04:06:31;6.40;99.90
1359;DHT22;673;48.098;14.422;2024-02-04T04:08:58;6.40;99.90
1359;DHT22;673;48.098;14.422;2024-02-04T04:11:25;6.40;99.90
1359;DHT22;673;48.098;14.422;2024-02-04T04:13:52;6.40;99.90
1359;DHT22;673;48.098;14.422;2024-02-04T04:16:21;6.40;99.90
1359;DHT22;673;48.098;14.422;2024-02-04T04:18:48;6.40;99.90
1359;DHT22;673;48.098;14.422;2024-02-04T04:21:15;6.40;99.90
1359;DHT22;673;48.098;14.422;2024-02-04T04:23:44;6.40;99.90
1359;DHT22;673;48.098;14.422;2024-02-04T04:26:11;6.30;99.90
1359;DHT22;673;48.098;14.422;2024-02-04T04:28:38;6.40;99.90
1359;DHT22;673;48.098;14.422;2024-02-04T04:31:05;6.30;99.90
1359;DHT22;673;48.098;14.422;2024-02-04T04:33:32;6.40;99.90
1359;DHT22;673;48.098;14.422;2024-02-04T04:35:59;6.30;99.90
1359;DHT22;673;48.098;14.422;2024-02-04T04:38:26;6.30;99.90
1359;DHT22;673;48.098;14.422;2024-02-04T04:40:54;6.30;99.90
1359;DHT22;673;48.098;14.422;2024-02-04T04:43:21;6.30;99.90
1359;DHT22;673;48.098;14.422;2024-02-04T04:45:48;6.30;99.90
1359;DHT22;673;48.098;14.422;2024-02-04T04:48:15;6.30;99.90
1359;DHT22;673;48.098;14.422;2024-02-04T04:50:42;6.30;99.90
1359;DHT22;673;48.098;14.422;2024-02-04T04:53:09;6.30;99.90
1359;DHT22;673;48.098;14.422;2024-02-04T04:55:36;6.30;99.90
1359;DHT22;673;48.098;14.422;2024-02-04T04:58:04;6.30;99.90
1359;DHT22;673;48.098;14.422;2024-02-04T05:00:31;6.30;99.90
1359;DHT22;673;48.098;14.422;2024-02-04T05:02:58;6.30;99.90
1359;DHT22;673;48.098;14.422;2024-02-04T05:05:25;6.30;99.90
1359;DHT22;673;48.098;14.422;2024-02-04T05:07:52;6.30;99.90
1359;DHT22;673;48.098;14.422;2024-02-04T05:10:18;6.30;99.90
1359;DHT22;673;48.098;14.422;2024-02-04T05:12:45;6.30;99.90
1359;DHT22;673;48.098;14.422;2024-02-04T05:15:14;6.30;99.90
1359;DHT22;673;48.098;14.422;2024-02-04T05:17:41;6.30;99.90
1359;DHT22;673;48.098;14.422;2024-02-04T05:20:09;6.20;99.90
1359;DHT22;673;48.098;14.422;2024-02-04T05:22:36;6.20;99.90
1359;DHT22;673;48.098;14.422;2024-02-04T05:25:03;6.20;99.90
1359;DHT22;673;48.098;14.422;2024-02-04T05:27:31;6.20;99.90
1359;DHT22;673;48.098;14.422;2024-02-04T05:29:58;6.20;99.90
1359;DHT22;673;48.098;14.422;2024-02-04T05:32:27;6.20;99.90
1359;DHT22;673;48.098;14.422;2024-02-04T05:34:54;6.10;99.90
1359;DHT22;673;48.098;14.422;2024-02-04T05:37:21;6.20;99.90
1359;DHT22;673;48.098;14.422;2024-02-04T05:39:48;6.10;99.90
1359;DHT22;673;48.098;14.422;2024-02-04T05:42:15;6.10;99.90
1359;DHT22;673;48.098;14.422;2024-02-04T05:44:42;6.10;99.90
1359;DHT22;673;48.098;14.422;2024-02-04T05:47:09;6.10;99.90
1359;DHT22;673;48.098;14.422;2024-02-04T05:49:37;6.10;99.90
1359;DHT22;673;48.098;14.422;2024-02-04T05:52:05;6.10;99.90
1359;DHT22;673;48.098;14.422;2024-02-04T05:54:32;6.10;99.90
1359;DHT22;673;48.098;14.422;2024-02-04T05:57:04;6.10;99.90
1359;DHT22;673;48.098;14.422;2024-02-04T05:59:31;6.10;99.90
1359;DHT22;673;48.098;14.422;2024-02-04T06:01:58;6.10;99.90
1359;DHT22;673;48.098;14.422;2024-02-04T06:04:25;6.10;99.90
1359;DHT22;673;48.098;14.422;2024-02-04T06:06:53;6.10;99.90
1359;DHT22;673;48.098;14.422;2024-02-04T06:09:20;6.10;99.90
1359;DHT22;673;48.098;14.422;2024-02-04T06:11:47;6.10;99.90
1359;DHT22;673;48.098;14.422;2024-02-04T06:14:13;6.10;99.90
1359;DHT22;673;48.098;14.422;2024-02-04T06:16:40;6.10;99.90
1359;DHT22;673;48.098;14.422;2024-02-04T06:19:07;6.10;99.90
1359;DHT22;673;48.098;14.422;2024-02-04T06:21:34;6.10;99.90
1359;DHT22;673;48.098;14.422;2024-02-04T06:24:03;6.10;99.90
1359;DHT22;673;48.098;14.422;2024-02-04T06:26:30;6.20;99.90
1359;DHT22;673;48.098;14.422;2024-02-04T06:28:57;6.10;99.90
1359;DHT22;673;48.098;14.422;2024-02-04T06:31:24;6.20;99.90
1359;DHT22;673;48.098;14.422;2024-02-04T06:33:51;6.10;99.90
1359;DHT22;673;48.098;14.422;2024-02-04T06:36:18;6.20;99.90
1359;DHT22;673;48.098;14.422;2024-02-04T06:38:45;6.20;99.90
1359;DHT22;673;48.098;14.422;2024-02-04T06:41:13;6.30;99.90
1359;DHT22;673;48.098;14.422;2024-02-04T06:43:40;6.30;99.90
1359;DHT22;673;48.098;14.422;2024-02-04T06:46:07;6.20;99.90
1359;DHT22;673;48.098;14.422;2024-02-04T06:48:34;6.30;99.90
1359;DHT22;673;48.098;14.422;2024-02-04T06:51:00;6.30;99.90
1359;DHT22;673;48.098;14.422;2024-02-04T06:53:28;6.30;99.90
1359;DHT22;673;48.098;14.422;2024-02-04T06:55:55;6.40;99.90
1359;DHT22;673;48.098;14.422;2024-02-04T06:58:23;6.40;99.90
1359;DHT22;673;48.098;14.422;2024-02-04T07:00:50;6.40;99.90
1359;DHT22;673;48.098;14.422;2024-02-04T07:03:17;6.50;99.90
1359;DHT22;673;48.098;14.422;2024-02-04T07:05:44;6.50;99.90
1359;DHT22;673;48.098;14.422;2024-02-04T07:08:12;6.50;99.90
1359;DHT22;673;48.098;14.422;2024-02-04T07:10:40;6.50;99.90
1359;DHT22;673;48.098;14.422;2024-02-04T07:13:07;6.50;99.90
1359;DHT22;673;48.098;14.422;2024-02-04T07:15:35;6.50;99.90
1359;DHT22;673;48.098;14.422;2024-02-04T07:18:02;6.60;99.90
1359;DHT22;673;48.098;14.422;2024-02-04T07:20:29;6.50;99.90
1359;DHT22;673;48.098;14.422;2024-02-04T07:22:56;6.60;99.90
1359;DHT22;673;48.098;14.422;2024-02-04T07:25:23;6.60;99.90
1359;DHT22;673;48.098;14.422;2024-02-04T07:27:50;6.60;99.90
1359;DHT22;673;48.098;14.422;2024-02-04T07:30:17;6.60;99.90
1359;DHT22;673;48.098;14.422;2024-02-04T07:32:45;6.50;99.90
1359;DHT22;673;48.098;14.422;2024-02-04T07:35:12;6.50;99.90
1359;DHT22;673;48.098;14.422;2024-02-04T07:37:39;6.50;99.90
1359;DHT22;673;48.098;14.422;2024-02-04T07:40:07;6.60;99.90
1359;DHT22;673;48.098;14.422;2024-02-04T07:42:34;6.60;99.90
1359;DHT22;673;48.098;14.422;2024-02-04T07:45:01;6.60;99.90
1359;DHT22;673;48.098;14.422;2024-02-04T07:47:34;6.50;99.90
1359;DHT22;673;48.098;14.422;2024-02-04T07:50:02;6.50;99.90
1359;DHT22;673;48.098;14.422;2024-02-04T07:52:29;6.50;99.90
1359;DHT22;673;48.098;14.422;2024-02-04T07:54:56;6.60;99.90
1359;DHT22;673;48.098;14.422;2024-02-04T07:57:23;6.60;99.90
1359;DHT22;673;48.098;14.422;2024-02-04T07:59:50;6.60;99.90
1359;DHT22;673;48.098;14.422;2024-02-04T08:02:17;6.60;99.90
1359;DHT22;673;48.098;14.422;2024-02-04T08:04:44;6.60;99.90
1359;DHT22;673;48.098;14.422;2024-02-04T08:07:13;6.60;99.90
1359;DHT22;673;48.098;14.422;2024-02-04T08:09:40;6.60;99.90
1359;DHT22;673;48.098;14.422;2024-02-04T08:12:07;6.60;99.90
1359;DHT22;673;48.098;14.422;2024-02-04T08:14:35;6.70;99.90
1359;DHT22;673;48.098;14.422;2024-02-04T08:17:02;6.70;99.90
1359;DHT22;673;48.098;14.422;2024-02-04T08:19:29;6.80;99.90
1359;DHT22;673;48.098;14.422;2024-02-04T08:21:56;6.80;99.90
1359;DHT22;673;48.098;14.422;2024-02-04T08:24:25;6.80;99.90
1359;DHT22;673;48.098;14.422;2024-02-04T08:26:52;6.80;99.90
1359;DHT22;673;48.098;14.422;2024-02-04T08:29:22;6.90;99.90
1359;DHT22;673;48.098;14.422;2024-02-04T08:31:50;6.90;99.90
1359;DHT22;673;48.098;14.422;2024-02-04T08:34:17;6.90;99.90
1359;DHT22;673;48.098;14.422;2024-02-04T08:36:46;7.00;99.90
1359;DHT22;673;48.098;14.422;2024-02-04T08:39:12;7.00;99.90
1359;DHT22;673;48.098;14.422;2024-02-04T08:41:41;7.00;99.90
1359;DHT22;673;48.098;14.422;2024-02-04T08:44:08;7.00;99.90
1359;DHT22;673;48.098;14.422;2024-02-04T08:46:35;7.00;99.90
1359;DHT22;673;48.098;14.422;2024-02-04T08:49:02;7.00;99.90
1359;DHT22;673;48.098;14.422;2024-02-04T08:51:29;7.00;99.90
1359;DHT22;673;48.098;14.422;2024-02-04T08:53:56;7.00;99.90
1359;DHT22;673;48.098;14.422;2024-02-04T08:56:23;7.10;99.90
1359;DHT22;673;48.098;14.422;2024-02-04T08:58:51;7.10;99.90
1359;DHT22;673;48.098;14.422;2024-02-04T09:01:19;7.10;99.90
1359;DHT22;673;48.098;14.422;2024-02-04T09:03:46;7.20;99.90
1359;DHT22;673;48.098;14.422;2024-02-04T09:06:13;7.20;99.90
1359;DHT22;673;48.098;14.422;2024-02-04T09:08:41;7.30;99.90
1359;DHT22;673;48.098;14.422;2024-02-04T09:11:08;7.30;99.90
1359;DHT22;673;48.098;14.422;2024-02-04T09:13:35;7.40;99.90
1359;DHT22;673;48.098;14.422;2024-02-04T09:16:04;7.40;99.90
1359;DHT22;673;48.098;14.422;2024-02-04T09:18:31;7.40;99.90
1359;DHT22;673;48.098;14.422;2024-02-04T09:20:57;7.40;99.90
1359;DHT22;673;48.098;14.422;2024-02-04T09:23:24;7.40;99.90
1359;DHT22;673;48.098;14.422;2024-02-04T09:25:51;7.40;99.90
1359;DHT22;673;48.098;14.422;2024-02-04T09:28:18;7.40;99.90
1359;DHT22;673;48.098;14.422;2024-02-04T09:30:45;7.30;99.90
1359;DHT22;673;48.098;14.422;2024-02-04T09:33:14;7.40;99.90
1359;DHT22;673;48.098;14.422;2024-02-04T09:35:41;7.60;99.90
1359;DHT22;673;48.098;14.422;2024-02-04T09:38:08;7.60;99.90
1359;DHT22;673;48.098;14.422;2024-02-04T09:40:35;7.50;99.90
1359;DHT22;673;48.098;14.422;2024-02-04T09:43:03;7.60;99.90
1359;DHT22;673;48.098;14.422;2024-02-04T09:45:31;7.60;99.90
1359;DHT22;673;48.098;14.422;2024-02-04T09:47:58;7.70;99.90
1359;DHT22;673;48.098;14.422;2024-02-04T09:50:28;7.70;99.90
1359;DHT22;673;48.098;14.422;2024-02-04T09:52:59;7.80;99.90
1359;DHT22;673;48.098;14.422;2024-02-04T09:55:27;7.80;99.90
1359;DHT22;673;48.098;14.422;2024-02-04T09:57:55;7.70;99.90
1359;DHT22;673;48.098;14.422;2024-02-04T10:00:23;7.70;99.90
1359;DHT22;673;48.098;14.422;2024-02-04T10:02:53;7.80;99.90
1359;DHT22;673;48.098;14.422;2024-02-04T10:05:22;7.80;99.90
1359;DHT22;673;48.098;14.422;2024-02-04T10:07:50;7.80;99.90
1359;DHT22;673;48.098;14.422;2024-02-04T10:10:17;7.90;99.90
1359;DHT22;673;48.098;14.422;2024-02-04T10:12:45;8.00;99.90
1359;DHT22;673;48.098;14.422;2024-02-04T10:15:12;8.00;99.90
1359;DHT22;673;48.098;14.422;2024-02-04T10:17:42;8.00;99.90
1359;DHT22;673;48.098;14.422;2024-02-04T10:20:10;8.00;99.90
1359;DHT22;673;48.098;14.422;2024-02-04T10:22:38;7.90;99.90
1359;DHT22;673;48.098;14.422;2024-02-04T10:25:10;7.90;99.90
1359;DHT22;673;48.098;14.422;2024-02-04T10:27:38;7.90;99.90
1359;DHT22;673;48.098;14.422;2024-02-04T10:30:06;7.90;99.90
1359;DHT22;673;48.098;14.422;2024-02-04T10:32:34;7.80;99.90
1359;DHT22;673;48.098;14.422;2024-02-04T10:35:01;7.70;99.90
1359;DHT22;673;48.098;14.422;2024-02-04T10:37:28;7.70;99.90
1359;DHT22;673;48.098;14.422;2024-02-04T10:39:55;7.70;99.90
1359;DHT22;673;48.098;14.422;2024-02-04T10:42:25;7.80;99.90
1359;DHT22;673;48.098;14.422;2024-02-04T10:44:53;7.90;99.90
1359;DHT22;673;48.098;14.422;2024-02-04T10:47:23;7.90;99.90
1359;DHT22;673;48.098;14.422;2024-02-04T10:49:51;7.90;99.90
1359;DHT22;673;48.098;14.422;2024-02-04T10:52:20;7.90;99.90
1359;DHT22;673;48.098;14.422;2024-02-04T10:54:48;8.00;99.90
1359;DHT22;673;48.098;14.422;2024-02-04T10:57:20;8.00;99.90
1359;DHT22;673;48.098;14.422;2024-02-04T10:59:51;8.10;99.90
1359;DHT22;673;48.098;14.422;2024-02-04T11:02:19;8.00;99.90
1359;DHT22;673;48.098;14.422;2024-02-04T11:04:48;8.10;99.90
1359;DHT22;673;48.098;14.422;2024-02-04T11:07:17;8.10;99.90
1359;DHT22;673;48.098;14.422;2024-02-04T11:09:45;8.10;99.90
1359;DHT22;673;48.098;14.422;2024-02-04T11:12:15;8.00;99.90
1359;DHT22;673;48.098;14.422;2024-02-04T11:14:46;8.00;99.90
1359;DHT22;673;48.098;14.422;2024-02-04T11:20:23;8.20;99.90
1359;DHT22;673;48.098;14.422;2024-02-04T11:23:07;8.20;99.90
1359;DHT22;673;48.098;14.422;2024-02-04T11:25:43;8.20;99.90
1359;DHT22;673;48.098;14.422;2024-02-04T11:28:11;8.20;99.90
1359;DHT22;673;48.098;14.422;2024-02-04T11:30:39;8.10;99.90
1359;DHT22;673;48.098;14.422;2024-02-04T11:33:09;8.20;99.90
1359;DHT22;673;48.098;14.422;2024-02-04T11:35:37;8.20;99.90
1359;DHT22;673;48.098;14.422;2024-02-04T11:38:05;8.30;99.90
1359;DHT22;673;48.098;14.422;2024-02-04T11:40:34;8.40;99.90
1359;DHT22;673;48.098;14.422;2024-02-04T11:43:06;8.40;99.90
1359;DHT22;673;48.098;14.422;2024-02-04T11:45:36;8.40;99.90
1359;DHT22;673;48.098;14.422;2024-02-04T11:48:08;8.40;99.90
1359;DHT22;673;48.098;14.422;2024-02-04T11:50:35;8.50;99.90
1359;DHT22;673;48.098;14.422;2024-02-04T11:53:05;8.50;99.90
1359;DHT22;673;48.098;14.422;2024-02-04T11:55:33;8.60;99.90
1359;DHT22;673;48.098;14.422;2024-02-04T11:58:00;8.70;99.90
1359;DHT22;673;48.098;14.422;2024-02-04T12:00:28;8.60;99.90
1359;DHT22;673;48.098;14.422;2024-02-04T12:03:02;8.70;99.90
1359;DHT22;673;48.098;14.422;2024-02-04T12:05:34;8.80;99.90
1359;DHT22;673;48.098;14.422;2024-02-04T12:08:02;8.90;99.90
1359;DHT22;673;48.098;14.422;2024-02-04T12:10:30;8.90;99.90
1359;DHT22;673;48.098;14.422;2024-02-04T12:12:59;8.80;99.90
1359;DHT22;673;48.098;14.422;2024-02-04T12:15:26;8.90;99.90
1359;DHT22;673;48.098;14.422;2024-02-04T12:17:53;8.90;99.90
1359;DHT22;673;48.098;14.422;2024-02-04T12:20:21;8.90;99.90
1359;DHT22;673;48.098;14.422;2024-02-04T12:22:49;8.90;99.90
1359;DHT22;673;48.098;14.422;2024-02-04T12:25:16;9.00;99.90
1359;DHT22;673;48.098;14.422;2024-02-04T12:27:44;9.00;99.90
1359;DHT22;673;48.098;14.422;2024-02-04T12:30:13;9.20;99.90
1359;DHT22;673;48.098;14.422;2024-02-04T12:42:54;9.10;99.90
1359;DHT22;673;48.098;14.422;2024-02-04T12:45:21;9.00;99.90
1359;DHT22;673;48.098;14.422;2024-02-04T12:47:50;9.00;99.90
1359;DHT22;673;48.098;14.422;2024-02-04T12:50:17;9.00;99.90
1359;DHT22;673;48.098;14.422;2024-02-04T12:52:45;9.00;99.90
1359;DHT22;673;48.098;14.422;2024-02-04T12:55:24;9.00;99.90
1359;DHT22;673;48.098;14.422;2024-02-04T12:58:03;9.00;99.90
1359;DHT22;673;48.098;14.422;2024-02-04T13:00:30;9.00;99.90
1359;DHT22;673;48.098;14.422;2024-02-04T13:02:58;9.00;99.90
1359;DHT22;673;48.098;14.422;2024-02-04T13:05:25;8.90;99.90
1359;DHT22;673;48.098;14.422;2024-02-04T13:07:54;8.90;99.90
1359;DHT22;673;48.098;14.422;2024-02-04T13:10:23;8.90;99.90
1359;DHT22;673;48.098;14.422;2024-02-04T13:13:02;8.90;99.90
1359;DHT22;673;48.098;14.422;2024-02-04T13:15:31;8.90;99.90
1359;DHT22;673;48.098;14.422;2024-02-04T13:17:59;9.00;99.90
1359;DHT22;673;48.098;14.422;2024-02-04T13:20:26;9.00;99.90
1359;DHT22;673;48.098;14.422;2024-02-04T13:22:53;9.00;99.90
1359;DHT22;673;48.098;14.422;2024-02-04T13:25:20;9.00;99.90
1359;DHT22;673;48.098;14.422;2024-02-04T13:27:47;9.10;99.90
1359;DHT22;673;48.098;14.422;2024-02-04T13:30:17;9.10;99.90
1359;DHT22;673;48.098;14.422;2024-02-04T13:32:45;9.10;99.90
1359;DHT22;673;48.098;14.422;2024-02-04T13:35:12;9.10;99.90
1359;DHT22;673;48.098;14.422;2024-02-04T13:37:44;9.10;99.90
1359;DHT22;673;48.098;14.422;2024-02-04T13:40:14;9.10;99.90
1359;DHT22;673;48.098;14.422;2024-02-04T13:42:42;9.10;99.90
1359;DHT22;673;48.098;14.422;2024-02-04T13:45:09;9.20;99.90
1359;DHT22;673;48.098;14.422;2024-02-04T13:47:37;9.20;99.90
1359;DHT22;673;48.098;14.422;2024-02-04T13:50:05;9.20;99.90
1359;DHT22;673;48.098;14.422;2024-02-04T13:52:33;9.30;99.90
1359;DHT22;673;48.098;14.422;2024-02-04T13:55:00;9.20;99.90
1359;DHT22;673;48.098;14.422;2024-02-04T13:57:27;9.20;99.90
1359;DHT22;673;48.098;14.422;2024-02-04T13:59:54;9.20;99.90
1359;DHT22;673;48.098;14.422;2024-02-04T14:02:21;9.20;99.90
1359;DHT22;673;48.098;14.422;2024-02-04T14:04:50;9.20;99.90
1359;DHT22;673;48.098;14.422;2024-02-04T14:07:18;9.20;99.90
1359;DHT22;673;48.098;14.422;2024-02-04T14:09:45;9.10;99.90
1359;DHT22;673;48.098;14.422;2024-02-04T14:12:12;9.10;99.90
1359;DHT22;673;48.098;14.422;2024-02-04T14:14:40;9.10;99.90
1359;DHT22;673;48.098;14.422;2024-02-04T14:17:07;9.10;99.90
1359;DHT22;673;48.098;14.422;2024-02-04T14:19:34;9.10;99.90
1359;DHT22;673;48.098;14.422;2024-02-04T14:22:02;9.10;99.90
1359;DHT22;673;48.098;14.422;2024-02-04T14:24:29;9.10;99.90
1359;DHT22;673;48.098;14.422;2024-02-04T14:26:56;9.00;99.90
1359;DHT22;673;48.098;14.422;2024-02-04T14:29:24;9.00;99.90
1359;DHT22;673;48.098;14.422;2024-02-04T14:31:51;9.00;99.90
1359;DHT22;673;48.098;14.422;2024-02-04T14:34:18;9.00;99.90
1359;DHT22;673;48.098;14.422;2024-02-04T14:36:45;9.10;99.90
1359;DHT22;673;48.098;14.422;2024-02-04T14:39:14;9.10;99.90
1359;DHT22;673;48.098;14.422;2024-02-04T14:41:41;9.00;99.90
1359;DHT22;673;48.098;14.422;2024-02-04T14:44:09;9.00;99.90
1359;DHT22;673;48.098;14.422;2024-02-04T14:46:37;9.10;99.90
1359;DHT22;673;48.098;14.422;2024-02-04T14:49:04;9.00;99.90
1359;DHT22;673;48.098;14.422;2024-02-04T14:51:31;9.00;99.90
1359;DHT22;673;48.098;14.422;2024-02-04T14:53:58;9.10;99.90
1359;DHT22;673;48.098;14.422;2024-02-04T14:56:27;9.10;99.90
1359;DHT22;673;48.098;14.422;2024-02-04T14:58:54;9.10;99.90
1359;DHT22;673;48.098;14.422;2024-02-04T15:01:21;9.10;99.90
1359;DHT22;673;48.098;14.422;2024-02-04T15:03:48;9.00;99.90
1359;DHT22;673;48.098;14.422;2024-02-04T15:06:14;9.00;99.90
1359;DHT22;673;48.098;14.422;2024-02-04T15:08:42;9.00;99.90
1359;DHT22;673;48.098;14.422;2024-02-04T15:11:09;9.00;99.90
1359;DHT22;673;48.098;14.422;2024-02-04T15:13:38;9.00;99.90
1359;DHT22;673;48.098;14.422;2024-02-04T15:16:06;8.90;99.90
1359;DHT22;673;48.098;14.422;2024-02-04T15:18:34;8.90;99.90
1359;DHT22;673;48.098;14.422;2024-02-04T15:21:02;8.90;99.90
1359;DHT22;673;48.098;14.422;2024-02-04T15:23:30;8.90;99.90
1359;DHT22;673;48.098;14.422;2024-02-04T15:25:57;8.90;99.90
1359;DHT22;673;48.098;14.422;2024-02-04T15:28:25;8.90;99.90
1359;DHT22;673;48.098;14.422;2024-02-04T15:30:54;9.00;99.90
1359;DHT22;673;48.098;14.422;2024-02-04T15:33:23;9.00;99.90
1359;DHT22;673;48.098;14.422;2024-02-04T15:35:50;9.00;99.90
1359;DHT22;673;48.098;14.422;2024-02-04T15:38:17;9.00;99.90
1359;DHT22;673;48.098;14.422;2024-02-04T15:40:44;9.00;99.90
1359;DHT22;673;48.098;14.422;2024-02-04T15:43:11;9.10;99.90
1359;DHT22;673;48.098;14.422;2024-02-04T15:45:38;9.10;99.90
1359;DHT22;673;48.098;14.422;2024-02-04T15:48:09;9.10;99.90
1359;DHT22;673;48.098;14.422;2024-02-04T15:50:37;9.10;99.90
1359;DHT22;673;48.098;14.422;2024-02-04T15:53:05;9.20;99.90
1359;DHT22;673;48.098;14.422;2024-02-04T15:55:33;9.20;99.90
1359;DHT22;673;48.098;14.422;2024-02-04T15:58:04;9.20;99.90
1359;DHT22;673;48.098;14.422;2024-02-04T16:00:33;9.30;99.90
1359;DHT22;673;48.098;14.422;2024-02-04T16:03:01;9.20;99.90
1359;DHT22;673;48.098;14.422;2024-02-04T16:05:31;9.20;99.90
1359;DHT22;673;48.098;14.422;2024-02-04T16:08:01;9.20;99.90
1359;DHT22;673;48.098;14.422;2024-02-04T16:10:28;9.20;99.90
1359;DHT22;673;48.098;14.422;2024-02-04T16:12:57;9.20;99.90
1359;DHT22;673;48.098;14.422;2024-02-04T16:15:26;9.20;99.90
1359;DHT22;673;48.098;14.422;2024-02-04T16:17:54;9.20;99.90
1359;DHT22;673;48.098;14.422;2024-02-04T16:20:22;9.20;99.90
1359;DHT22;673;48.098;14.422;2024-02-04T16:22:52;9.10;99.90
1359;DHT22;673;48.098;14.422;2024-02-04T16:25:19;9.10;99.90
1359;DHT22;673;48.098;14.422;2024-02-04T16:27:46;9.10;99.90
1359;DHT22;673;48.098;14.422;2024-02-04T16:30:13;9.10;99.90
1359;DHT22;673;48.098;14.422;2024-02-04T16:32:42;9.20;99.90
1359;DHT22;673;48.098;14.422;2024-02-04T16:35:09;9.20;99.90